RYR59JL EGNM-LFMP
Flight info
| Callsign | RYR59JL |
|---|---|
| Flight time | 1h 52m |
| Altitude | 35000 |
| Route | NELSA DCT MCT DCT LISTO P18 STAFA L8 HON UL612 RESMI UN857 DISAK DCT DIRMO DCT ETAMO DCT ADEKA DCT MOKDI DCT MEN DCT BADAM DCT NEKTA DCT SIJAN |
| Aircraft | B738/M-SDE2E3FGHIRWXY/LB1 |
Departure
| Time | 2026-04-24 08:09 |
|---|---|
| Airport | Leeds Bradford Airport (EGNM) |
Arrival
| Time | 2026-04-24 10:02 |
|---|---|
| Airport | Perpignan-Rivesaltes (Llabanère) Airport (LFMP) |
| Time | Latitude | Longitude | Altitude | Speed | Heading |
|---|---|---|---|---|---|
| 2026-04-24 07:55 | 53.86873 | -1.65156 | 639 ft | 0 kts | 0° |
| 2026-04-24 07:59 | 53.86869 | -1.65156 | 639 ft | 2 kts | 0° |
| 2026-04-24 07:59 | 53.86854 | -1.65156 | 640 ft | 2 kts | 1° |
| 2026-04-24 07:59 | 53.86840 | -1.65160 | 640 ft | 2 kts | 27° |
| 2026-04-24 08:00 | 53.86827 | -1.65176 | 642 ft | 2 kts | 50° |
| 2026-04-24 08:00 | 53.86820 | -1.65198 | 644 ft | 2 kts | 49° |
| 2026-04-24 08:00 | 53.86808 | -1.65212 | 646 ft | 2 kts | 20° |
| 2026-04-24 08:00 | 53.86793 | -1.65215 | 647 ft | 2 kts | 355° |
| 2026-04-24 08:01 | 53.86784 | -1.65214 | 647 ft | 0 kts | 0° |
| 2026-04-24 08:01 | 53.86782 | -1.65213 | 647 ft | 0 kts | 0° |
| 2026-04-24 08:03 | 53.86795 | -1.65213 | 646 ft | 5 kts | 1° |
| 2026-04-24 08:03 | 53.86813 | -1.65225 | 647 ft | 3 kts | 313° |
| 2026-04-24 08:03 | 53.86823 | -1.65265 | 649 ft | 4 kts | 281° |
| 2026-04-24 08:03 | 53.86826 | -1.65316 | 653 ft | 5 kts | 276° |
| 2026-04-24 08:04 | 53.86819 | -1.65373 | 658 ft | 5 kts | 237° |
| 2026-04-24 08:04 | 53.86776 | -1.65409 | 661 ft | 10 kts | 188° |
| 2026-04-24 08:04 | 53.86673 | -1.65426 | 665 ft | 19 kts | 183° |
| 2026-04-24 08:04 | 53.86505 | -1.65451 | 673 ft | 28 kts | 188° |
| 2026-04-24 08:05 | 53.86330 | -1.65475 | 677 ft | 17 kts | 176° |
| 2026-04-24 08:05 | 53.86239 | -1.65457 | 680 ft | 9 kts | 149° |
| 2026-04-24 08:05 | 53.86173 | -1.65389 | 680 ft | 18 kts | 146° |
| 2026-04-24 08:05 | 53.86058 | -1.65237 | 675 ft | 21 kts | 136° |
| 2026-04-24 08:06 | 53.85961 | -1.65093 | 667 ft | 11 kts | 139° |
| 2026-04-24 08:06 | 53.85955 | -1.65085 | 667 ft | 0 kts | 140° |
| 2026-04-24 08:07 | 53.85936 | -1.65043 | 664 ft | 13 kts | 118° |
| 2026-04-24 08:08 | 53.85870 | -1.64942 | 657 ft | 8 kts | 237° |
| 2026-04-24 08:08 | 53.85889 | -1.64988 | 660 ft | 2 kts | 321° |
| 2026-04-24 08:08 | 53.85905 | -1.65011 | 662 ft | 11 kts | 320° |
| 2026-04-24 08:09 | 53.86680 | -1.66200 | 684 ft | 133 kts | 317° |
| 2026-04-24 08:09 | 53.87475 | -1.67441 | 800 ft | 168 kts | 317° |
| 2026-04-24 08:09 | 53.88316 | -1.68818 | 1340 ft | 175 kts | 316° |
| 2026-04-24 08:09 | 53.89152 | -1.70403 | 1678 ft | 188 kts | 309° |
| 2026-04-24 08:10 | 53.90007 | -1.72210 | 1858 ft | 205 kts | 303° |
| 2026-04-24 08:10 | 53.90534 | -1.74526 | 2054 ft | 222 kts | 273° |
| 2026-04-24 08:10 | 53.90352 | -1.77149 | 2382 ft | 232 kts | 251° |
| 2026-04-24 08:10 | 53.89626 | -1.79675 | 2631 ft | 245 kts | 233° |
| 2026-04-24 08:11 | 53.88523 | -1.81971 | 2934 ft | 257 kts | 228° |
| 2026-04-24 08:11 | 53.87347 | -1.84229 | 3460 ft | 258 kts | 228° |
| 2026-04-24 08:11 | 53.86166 | -1.86542 | 3936 ft | 265 kts | 229° |
| 2026-04-24 08:11 | 53.84987 | -1.88902 | 4563 ft | 266 kts | 230° |
| 2026-04-24 08:12 | 53.83969 | -1.91535 | 5063 ft | 272 kts | 250° |
| 2026-04-24 08:12 | 53.83746 | -1.94668 | 5704 ft | 273 kts | 277° |
| 2026-04-24 08:12 | 53.84311 | -1.97754 | 6341 ft | 274 kts | 298° |
| 2026-04-24 08:12 | 53.85233 | -2.00544 | 6836 ft | 279 kts | 301° |
| 2026-04-24 08:13 | 53.86126 | -2.03512 | 6933 ft | 287 kts | 291° |
| 2026-04-24 08:13 | 53.86521 | -2.06819 | 6954 ft | 287 kts | 274° |
| 2026-04-24 08:13 | 53.86457 | -2.10108 | 7266 ft | 278 kts | 261° |
| 2026-04-24 08:13 | 53.85835 | -2.13211 | 7672 ft | 280 kts | 242° |
| 2026-04-24 08:14 | 53.84690 | -2.15877 | 8098 ft | 291 kts | 228° |
| 2026-04-24 08:14 | 53.83130 | -2.18175 | 8535 ft | 302 kts | 212° |
| 2026-04-24 08:14 | 53.81151 | -2.19436 | 8957 ft | 311 kts | 189° |
| 2026-04-24 08:14 | 53.78997 | -2.19834 | 9396 ft | 320 kts | 184° |
| 2026-04-24 08:15 | 53.76751 | -2.20095 | 9816 ft | 331 kts | 183° |
| 2026-04-24 08:15 | 53.74398 | -2.20377 | 10236 ft | 341 kts | 184° |
| 2026-04-24 08:15 | 53.72041 | -2.20695 | 10647 ft | 347 kts | 184° |
| 2026-04-24 08:15 | 53.69634 | -2.21047 | 11071 ft | 349 kts | 185° |
| 2026-04-24 08:16 | 53.67192 | -2.21419 | 11501 ft | 352 kts | 185° |
| 2026-04-24 08:16 | 53.64774 | -2.21793 | 11926 ft | 353 kts | 185° |
| 2026-04-24 08:16 | 53.62312 | -2.22173 | 12368 ft | 355 kts | 185° |
| 2026-04-24 08:16 | 53.59859 | -2.22550 | 12801 ft | 358 kts | 185° |
| 2026-04-24 08:17 | 53.57375 | -2.22931 | 13227 ft | 359 kts | 184° |
| 2026-04-24 08:17 | 53.54884 | -2.23312 | 13676 ft | 362 kts | 185° |
| 2026-04-24 08:17 | 53.52408 | -2.23691 | 14137 ft | 363 kts | 185° |
| 2026-04-24 08:17 | 53.49880 | -2.24076 | 14568 ft | 365 kts | 185° |
| 2026-04-24 08:18 | 53.47340 | -2.24462 | 15010 ft | 366 kts | 185° |
| 2026-04-24 08:18 | 53.44833 | -2.24843 | 15422 ft | 368 kts | 184° |
| 2026-04-24 08:18 | 53.42280 | -2.25231 | 15878 ft | 367 kts | 184° |
| 2026-04-24 08:18 | 53.39724 | -2.25616 | 16302 ft | 369 kts | 184° |
| 2026-04-24 08:19 | 53.37182 | -2.25891 | 16720 ft | 369 kts | 181° |
| 2026-04-24 08:19 | 53.34615 | -2.25805 | 17143 ft | 370 kts | 174° |
| 2026-04-24 08:19 | 53.32069 | -2.25313 | 17563 ft | 370 kts | 171° |
| 2026-04-24 08:19 | 53.29539 | -2.24603 | 17980 ft | 371 kts | 169° |
| 2026-04-24 08:20 | 53.27097 | -2.23833 | 18382 ft | 373 kts | 168° |
| 2026-04-24 08:20 | 53.24533 | -2.23011 | 18816 ft | 374 kts | 168° |
| 2026-04-24 08:20 | 53.21986 | -2.22208 | 19216 ft | 376 kts | 169° |
| 2026-04-24 08:20 | 53.19429 | -2.21423 | 19655 ft | 376 kts | 169° |
| 2026-04-24 08:21 | 53.16853 | -2.20703 | 20068 ft | 379 kts | 171° |
| 2026-04-24 08:21 | 53.14216 | -2.20257 | 20494 ft | 382 kts | 176° |
| 2026-04-24 08:21 | 53.11576 | -2.20264 | 20935 ft | 385 kts | 181° |
| 2026-04-24 08:21 | 53.08913 | -2.20558 | 21372 ft | 387 kts | 184° |
| 2026-04-24 08:22 | 53.06204 | -2.20982 | 21826 ft | 389 kts | 185° |
| 2026-04-24 08:22 | 53.03537 | -2.21441 | 22278 ft | 390 kts | 185° |
| 2026-04-24 08:22 | 53.00829 | -2.21910 | 22731 ft | 391 kts | 185° |
| 2026-04-24 08:22 | 52.98125 | -2.22368 | 23192 ft | 393 kts | 185° |
| 2026-04-24 08:23 | 52.95397 | -2.22818 | 23654 ft | 396 kts | 185° |
| 2026-04-24 08:23 | 52.92668 | -2.23230 | 24105 ft | 398 kts | 183° |
| 2026-04-24 08:23 | 52.89906 | -2.23365 | 24541 ft | 401 kts | 177° |
| 2026-04-24 08:23 | 52.87124 | -2.22782 | 24981 ft | 402 kts | 166° |
| 2026-04-24 08:24 | 52.84493 | -2.21394 | 25414 ft | 404 kts | 156° |
| 2026-04-24 08:24 | 52.81952 | -2.19276 | 25857 ft | 407 kts | 149° |
| 2026-04-24 08:24 | 52.79567 | -2.16809 | 26292 ft | 409 kts | 146° |
| 2026-04-24 08:24 | 52.77206 | -2.14158 | 26730 ft | 411 kts | 144° |
| 2026-04-24 08:25 | 52.74889 | -2.11462 | 27168 ft | 413 kts | 144° |
| 2026-04-24 08:25 | 52.72526 | -2.08684 | 27602 ft | 415 kts | 143° |
| 2026-04-24 08:25 | 52.70212 | -2.05964 | 28032 ft | 416 kts | 143° |
| 2026-04-24 08:25 | 52.67858 | -2.03212 | 28464 ft | 417 kts | 143° |
| 2026-04-24 08:26 | 52.65473 | -2.00438 | 28908 ft | 418 kts | 143° |
| 2026-04-24 08:26 | 52.63126 | -1.97721 | 29355 ft | 418 kts | 143° |
| 2026-04-24 08:26 | 52.60747 | -1.94981 | 29785 ft | 419 kts | 143° |
| 2026-04-24 08:26 | 52.58349 | -1.92227 | 30159 ft | 419 kts | 143° |
| 2026-04-24 08:27 | 52.55996 | -1.89531 | 30589 ft | 418 kts | 143° |
| 2026-04-24 08:27 | 52.53617 | -1.86809 | 30998 ft | 417 kts | 143° |
| 2026-04-24 08:27 | 52.51243 | -1.84095 | 31372 ft | 416 kts | 144° |
| 2026-04-24 08:27 | 52.48914 | -1.81405 | 31782 ft | 413 kts | 146° |
| 2026-04-24 08:28 | 52.46572 | -1.78737 | 32168 ft | 411 kts | 147° |
| 2026-04-24 08:28 | 52.44235 | -1.76092 | 32535 ft | 408 kts | 147° |
| 2026-04-24 08:28 | 52.41899 | -1.73451 | 32910 ft | 405 kts | 147° |
| 2026-04-24 08:28 | 52.39587 | -1.70834 | 33315 ft | 402 kts | 147° |
| 2026-04-24 08:29 | 52.37304 | -1.68256 | 33716 ft | 398 kts | 147° |
| 2026-04-24 08:29 | 52.35030 | -1.65833 | 34111 ft | 393 kts | 151° |
| 2026-04-24 08:29 | 52.32652 | -1.63657 | 34552 ft | 387 kts | 154° |
| 2026-04-24 08:29 | 52.30311 | -1.61715 | 34988 ft | 382 kts | 155° |
| 2026-04-24 08:30 | 52.27920 | -1.59812 | 35295 ft | 380 kts | 156° |
| 2026-04-24 08:30 | 52.23148 | -1.56041 | 35359 ft | 388 kts | 156° |
| 2026-04-24 08:31 | 52.18257 | -1.52109 | 35361 ft | 398 kts | 155° |
| 2026-04-24 08:31 | 52.13252 | -1.48046 | 35352 ft | 409 kts | 155° |
| 2026-04-24 08:32 | 52.08115 | -1.43875 | 35355 ft | 419 kts | 155° |
| 2026-04-24 08:32 | 52.02836 | -1.39595 | 35354 ft | 429 kts | 155° |
| 2026-04-24 08:33 | 51.97463 | -1.35247 | 35348 ft | 436 kts | 155° |
| 2026-04-24 08:33 | 51.92001 | -1.30841 | 35360 ft | 446 kts | 156° |
| 2026-04-24 08:34 | 51.86386 | -1.26325 | 35345 ft | 457 kts | 156° |
| 2026-04-24 08:34 | 51.80699 | -1.21755 | 35349 ft | 459 kts | 156° |
| 2026-04-24 08:35 | 51.75002 | -1.17192 | 35348 ft | 458 kts | 156° |
| 2026-04-24 08:35 | 51.69295 | -1.12644 | 35343 ft | 459 kts | 156° |
| 2026-04-24 08:36 | 51.63615 | -1.08107 | 35339 ft | 459 kts | 155° |
| 2026-04-24 08:36 | 51.58131 | -1.02860 | 35339 ft | 461 kts | 148° |
| 2026-04-24 08:37 | 51.52917 | -0.96945 | 35329 ft | 461 kts | 146° |
| 2026-04-24 08:37 | 51.47749 | -0.90854 | 35333 ft | 460 kts | 146° |
| 2026-04-24 08:38 | 51.42316 | -0.85596 | 35325 ft | 456 kts | 157° |
| 2026-04-24 08:38 | 51.36473 | -0.81704 | 35329 ft | 454 kts | 162° |
| 2026-04-24 08:39 | 51.30553 | -0.78144 | 35329 ft | 460 kts | 162° |
| 2026-04-24 08:39 | 51.24533 | -0.74497 | 35328 ft | 468 kts | 161° |
| 2026-04-24 08:40 | 51.18487 | -0.70746 | 35318 ft | 467 kts | 161° |
| 2026-04-24 08:40 | 51.12492 | -0.66982 | 35324 ft | 467 kts | 161° |
| 2026-04-24 08:41 | 51.06505 | -0.63049 | 35322 ft | 468 kts | 157° |
| 2026-04-24 08:41 | 51.00827 | -0.57971 | 35323 ft | 470 kts | 149° |
| 2026-04-24 08:42 | 50.95401 | -0.52203 | 35325 ft | 471 kts | 147° |
| 2026-04-24 08:42 | 50.90039 | -0.46335 | 35325 ft | 471 kts | 147° |
| 2026-04-24 08:43 | 50.84620 | -0.40474 | 35328 ft | 471 kts | 148° |
| 2026-04-24 08:43 | 50.79212 | -0.34706 | 35323 ft | 470 kts | 149° |
| 2026-04-24 08:44 | 50.73794 | -0.28977 | 35319 ft | 470 kts | 148° |
| 2026-04-24 08:44 | 50.68404 | -0.23307 | 35316 ft | 469 kts | 148° |
| 2026-04-24 08:45 | 50.63002 | -0.17641 | 35305 ft | 469 kts | 149° |
| 2026-04-24 08:45 | 50.57568 | -0.11958 | 35300 ft | 469 kts | 148° |
| 2026-04-24 08:46 | 50.52158 | -0.06315 | 35298 ft | 468 kts | 148° |
| 2026-04-24 08:46 | 50.46739 | -0.00679 | 35291 ft | 468 kts | 148° |
| 2026-04-24 08:47 | 50.41319 | 0.04941 | 35283 ft | 467 kts | 148° |
| 2026-04-24 08:47 | 50.35920 | 0.10524 | 35292 ft | 468 kts | 148° |
| 2026-04-24 08:48 | 50.30536 | 0.16076 | 35292 ft | 468 kts | 148° |
| 2026-04-24 08:48 | 50.25096 | 0.21671 | 35288 ft | 467 kts | 148° |
| 2026-04-24 08:49 | 50.19709 | 0.27197 | 35283 ft | 467 kts | 148° |
| 2026-04-24 08:49 | 50.14303 | 0.32746 | 35289 ft | 467 kts | 148° |
| 2026-04-24 08:50 | 50.08878 | 0.38316 | 35282 ft | 465 kts | 148° |
| 2026-04-24 08:50 | 50.03483 | 0.43840 | 35283 ft | 466 kts | 148° |
| 2026-04-24 08:51 | 49.98089 | 0.49347 | 35278 ft | 466 kts | 147° |
| 2026-04-24 08:51 | 49.92679 | 0.54854 | 35272 ft | 467 kts | 147° |
| 2026-04-24 08:52 | 49.87288 | 0.60326 | 35267 ft | 467 kts | 147° |
| 2026-04-24 08:52 | 49.82007 | 0.66168 | 35264 ft | 468 kts | 143° |
| 2026-04-24 08:53 | 49.76975 | 0.72535 | 35262 ft | 468 kts | 141° |
| 2026-04-24 08:53 | 49.71989 | 0.78981 | 35261 ft | 467 kts | 141° |
| 2026-04-24 08:54 | 49.67022 | 0.85320 | 35261 ft | 468 kts | 141° |
| 2026-04-24 08:54 | 49.61966 | 0.91685 | 35255 ft | 468 kts | 141° |
| 2026-04-24 08:55 | 49.56917 | 0.97988 | 35258 ft | 469 kts | 141° |
| 2026-04-24 08:55 | 49.51868 | 1.04261 | 35255 ft | 469 kts | 141° |
| 2026-04-24 08:56 | 49.46802 | 1.10536 | 35251 ft | 467 kts | 141° |
| 2026-04-24 08:56 | 49.41762 | 1.16760 | 35257 ft | 466 kts | 141° |
| 2026-04-24 08:57 | 49.36711 | 1.22980 | 35261 ft | 467 kts | 142° |
| 2026-04-24 08:57 | 49.31678 | 1.29163 | 35252 ft | 466 kts | 141° |
| 2026-04-24 08:58 | 49.26629 | 1.35349 | 35249 ft | 465 kts | 141° |
| 2026-04-24 08:58 | 49.21578 | 1.41522 | 35249 ft | 466 kts | 142° |
| 2026-04-24 08:59 | 49.16562 | 1.47634 | 35247 ft | 463 kts | 142° |
| 2026-04-24 08:59 | 49.11559 | 1.53715 | 35242 ft | 459 kts | 142° |
| 2026-04-24 09:00 | 49.06584 | 1.59747 | 35239 ft | 455 kts | 142° |
| 2026-04-24 09:00 | 49.01685 | 1.65673 | 35238 ft | 453 kts | 142° |
| 2026-04-24 09:01 | 48.96743 | 1.71632 | 35237 ft | 452 kts | 142° |
| 2026-04-24 09:01 | 48.91853 | 1.77511 | 35234 ft | 452 kts | 142° |
| 2026-04-24 09:02 | 48.86905 | 1.83447 | 35232 ft | 451 kts | 142° |
| 2026-04-24 09:02 | 48.81982 | 1.89337 | 35234 ft | 452 kts | 142° |
| 2026-04-24 09:03 | 48.77084 | 1.95182 | 35234 ft | 453 kts | 142° |
| 2026-04-24 09:03 | 48.72132 | 2.01077 | 35230 ft | 451 kts | 142° |
| 2026-04-24 09:04 | 48.67235 | 2.06891 | 35230 ft | 449 kts | 142° |
| 2026-04-24 09:04 | 48.62238 | 2.12542 | 35229 ft | 448 kts | 147° |
| 2026-04-24 09:04 | 48.59517 | 2.14752 | 35226 ft | 448 kts | 158° |
| 2026-04-24 09:05 | 48.56553 | 2.16130 | 35227 ft | 447 kts | 168° |
| 2026-04-24 09:05 | 48.50381 | 2.16749 | 35222 ft | 448 kts | 182° |
| 2026-04-24 09:06 | 48.44194 | 2.15513 | 35217 ft | 450 kts | 190° |
| 2026-04-24 09:06 | 48.38108 | 2.13499 | 35215 ft | 451 kts | 192° |
| 2026-04-24 09:07 | 48.32026 | 2.11330 | 35205 ft | 451 kts | 191° |
| 2026-04-24 09:07 | 48.22693 | 2.10789 | 35188 ft | 451 kts | 173° |
| 2026-04-24 09:08 | 48.16502 | 2.12165 | 35185 ft | 450 kts | 169° |
| 2026-04-24 09:08 | 48.10293 | 2.13513 | 35181 ft | 451 kts | 174° |
| 2026-04-24 09:09 | 48.04090 | 2.13996 | 35184 ft | 452 kts | 177° |
| 2026-04-24 09:09 | 47.97795 | 2.14261 | 35183 ft | 453 kts | 177° |
| 2026-04-24 09:10 | 47.91511 | 2.14538 | 35179 ft | 453 kts | 177° |
| 2026-04-24 09:10 | 47.85210 | 2.14856 | 35170 ft | 452 kts | 176° |
| 2026-04-24 09:11 | 47.78944 | 2.15197 | 35177 ft | 453 kts | 176° |
| 2026-04-24 09:11 | 47.72662 | 2.15554 | 35176 ft | 454 kts | 176° |
| 2026-04-24 09:12 | 47.66392 | 2.15915 | 35175 ft | 453 kts | 176° |
| 2026-04-24 09:12 | 47.60043 | 2.16283 | 35171 ft | 456 kts | 176° |
| 2026-04-24 09:13 | 47.53752 | 2.16649 | 35165 ft | 455 kts | 176° |
| 2026-04-24 09:13 | 47.47435 | 2.17019 | 35163 ft | 457 kts | 176° |
| 2026-04-24 09:14 | 47.41055 | 2.17389 | 35151 ft | 464 kts | 176° |
| 2026-04-24 09:14 | 47.34551 | 2.17764 | 35147 ft | 467 kts | 176° |
| 2026-04-24 09:15 | 47.28098 | 2.18132 | 35153 ft | 467 kts | 176° |
| 2026-04-24 09:15 | 47.21570 | 2.18503 | 35147 ft | 468 kts | 176° |
| 2026-04-24 09:16 | 47.15075 | 2.18872 | 35139 ft | 471 kts | 176° |
| 2026-04-24 09:16 | 47.08558 | 2.19900 | 35138 ft | 469 kts | 166° |
| 2026-04-24 09:17 | 47.02380 | 2.22697 | 35136 ft | 468 kts | 158° |
| 2026-04-24 09:17 | 46.96406 | 2.26204 | 35130 ft | 471 kts | 155° |
| 2026-04-24 09:18 | 46.90374 | 2.29872 | 35132 ft | 470 kts | 155° |
| 2026-04-24 09:18 | 46.84368 | 2.33703 | 35131 ft | 471 kts | 151° |
| 2026-04-24 09:19 | 46.78746 | 2.38505 | 35130 ft | 469 kts | 145° |
| 2026-04-24 09:19 | 46.73300 | 2.43724 | 35127 ft | 469 kts | 144° |
| 2026-04-24 09:20 | 46.67874 | 2.48997 | 35131 ft | 471 kts | 144° |
| 2026-04-24 09:20 | 46.62442 | 2.54221 | 35128 ft | 474 kts | 145° |
| 2026-04-24 09:21 | 46.56690 | 2.58871 | 35129 ft | 478 kts | 161° |
| 2026-04-24 09:21 | 46.50249 | 2.61165 | 35129 ft | 476 kts | 169° |
| 2026-04-24 09:22 | 46.43787 | 2.62866 | 35129 ft | 473 kts | 171° |
| 2026-04-24 09:22 | 46.37291 | 2.64594 | 35131 ft | 473 kts | 170° |
| 2026-04-24 09:23 | 46.30883 | 2.66400 | 35129 ft | 470 kts | 170° |
| 2026-04-24 09:23 | 46.24451 | 2.68284 | 35128 ft | 472 kts | 170° |
| 2026-04-24 09:24 | 46.18048 | 2.70195 | 35131 ft | 469 kts | 169° |
| 2026-04-24 09:24 | 46.11686 | 2.72106 | 35131 ft | 471 kts | 169° |
| 2026-04-24 09:25 | 46.05285 | 2.74030 | 35129 ft | 468 kts | 169° |
| 2026-04-24 09:25 | 45.98908 | 2.75940 | 35134 ft | 470 kts | 169° |
| 2026-04-24 09:26 | 45.92550 | 2.77841 | 35133 ft | 469 kts | 169° |
| 2026-04-24 09:26 | 45.86165 | 2.79746 | 35138 ft | 468 kts | 169° |
| 2026-04-24 09:27 | 45.79781 | 2.81643 | 35135 ft | 469 kts | 169° |
| 2026-04-24 09:27 | 45.73412 | 2.83532 | 35141 ft | 471 kts | 169° |
| 2026-04-24 09:28 | 45.67036 | 2.85419 | 35141 ft | 471 kts | 169° |
| 2026-04-24 09:28 | 45.60604 | 2.87320 | 35139 ft | 471 kts | 169° |
| 2026-04-24 09:29 | 45.54214 | 2.89203 | 35142 ft | 472 kts | 169° |
| 2026-04-24 09:29 | 45.47812 | 2.91084 | 35146 ft | 470 kts | 169° |
| 2026-04-24 09:30 | 45.41404 | 2.92965 | 35142 ft | 472 kts | 169° |
| 2026-04-24 09:30 | 45.34997 | 2.94840 | 35140 ft | 473 kts | 169° |
| 2026-04-24 09:31 | 45.28562 | 2.96717 | 35153 ft | 473 kts | 169° |
| 2026-04-24 09:31 | 45.22121 | 2.98592 | 35151 ft | 472 kts | 169° |
| 2026-04-24 09:32 | 45.15683 | 3.00462 | 35158 ft | 474 kts | 169° |
| 2026-04-24 09:32 | 45.09270 | 3.02322 | 35151 ft | 474 kts | 169° |
| 2026-04-24 09:33 | 45.02805 | 3.04192 | 35151 ft | 474 kts | 169° |
| 2026-04-24 09:33 | 44.96345 | 3.06057 | 35148 ft | 474 kts | 169° |
| 2026-04-24 09:34 | 44.90330 | 3.07789 | 35149 ft | 474 kts | 169° |
| 2026-04-24 09:34 | 44.83891 | 3.09638 | 35149 ft | 475 kts | 169° |
| 2026-04-24 09:35 | 44.77390 | 3.11501 | 35156 ft | 475 kts | 169° |
| 2026-04-24 09:35 | 44.70954 | 3.13342 | 35151 ft | 476 kts | 169° |
| 2026-04-24 09:36 | 44.64483 | 3.15182 | 35146 ft | 475 kts | 170° |
| 2026-04-24 09:36 | 44.57963 | 3.16403 | 35145 ft | 474 kts | 177° |
| 2026-04-24 09:37 | 44.51385 | 3.16677 | 35147 ft | 474 kts | 181° |
| 2026-04-24 09:37 | 44.44761 | 3.16688 | 35149 ft | 474 kts | 181° |
| 2026-04-24 09:38 | 44.38200 | 3.16694 | 35145 ft | 475 kts | 181° |
| 2026-04-24 09:38 | 44.31605 | 3.16738 | 35142 ft | 476 kts | 180° |
| 2026-04-24 09:39 | 44.24974 | 3.16813 | 35151 ft | 476 kts | 180° |
| 2026-04-24 09:39 | 44.18353 | 3.16906 | 35148 ft | 476 kts | 180° |
| 2026-04-24 09:40 | 44.11764 | 3.16924 | 35150 ft | 475 kts | 183° |
| 2026-04-24 09:40 | 44.05251 | 3.15730 | 35152 ft | 473 kts | 195° |
| 2026-04-24 09:41 | 43.98969 | 3.13247 | 35144 ft | 472 kts | 199° |
| 2026-04-24 09:41 | 43.92748 | 3.10428 | 34563 ft | 469 kts | 200° |
| 2026-04-24 09:42 | 43.89708 | 3.09043 | 34328 ft | 458 kts | 200° |
| 2026-04-24 09:42 | 43.86721 | 3.07694 | 34147 ft | 446 kts | 200° |
| 2026-04-24 09:42 | 43.83805 | 3.06391 | 34007 ft | 435 kts | 199° |
| 2026-04-24 09:42 | 43.80931 | 3.05118 | 33625 ft | 429 kts | 200° |
| 2026-04-24 09:43 | 43.78106 | 3.03878 | 33131 ft | 427 kts | 199° |
| 2026-04-24 09:43 | 43.75275 | 3.02736 | 32657 ft | 425 kts | 195° |
| 2026-04-24 09:43 | 43.72384 | 3.01923 | 32173 ft | 423 kts | 191° |
| 2026-04-24 09:43 | 43.69483 | 3.01354 | 31682 ft | 421 kts | 188° |
| 2026-04-24 09:44 | 43.66676 | 3.00913 | 31241 ft | 418 kts | 187° |
| 2026-04-24 09:44 | 43.63805 | 3.00503 | 30613 ft | 419 kts | 187° |
| 2026-04-24 09:44 | 43.60864 | 3.00088 | 29761 ft | 425 kts | 187° |
| 2026-04-24 09:44 | 43.57936 | 2.99666 | 28929 ft | 431 kts | 187° |
| 2026-04-24 09:45 | 43.54954 | 2.99225 | 28095 ft | 435 kts | 187° |
| 2026-04-24 09:45 | 43.51935 | 2.98766 | 27261 ft | 439 kts | 187° |
| 2026-04-24 09:45 | 43.48909 | 2.98299 | 26432 ft | 442 kts | 188° |
| 2026-04-24 09:45 | 43.45857 | 2.97821 | 25603 ft | 445 kts | 188° |
| 2026-04-24 09:46 | 43.42773 | 2.97336 | 24773 ft | 447 kts | 188° |
| 2026-04-24 09:46 | 43.39697 | 2.96851 | 23946 ft | 449 kts | 188° |
| 2026-04-24 09:46 | 43.36586 | 2.96360 | 23120 ft | 450 kts | 188° |
| 2026-04-24 09:46 | 43.33471 | 2.95867 | 22306 ft | 450 kts | 188° |
| 2026-04-24 09:47 | 43.30399 | 2.95380 | 21511 ft | 450 kts | 188° |
| 2026-04-24 09:47 | 43.27272 | 2.94886 | 20699 ft | 450 kts | 187° |
| 2026-04-24 09:47 | 43.24186 | 2.94399 | 19904 ft | 449 kts | 187° |
| 2026-04-24 09:47 | 43.21128 | 2.93814 | 19083 ft | 440 kts | 192° |
| 2026-04-24 09:48 | 43.18304 | 2.92531 | 18324 ft | 421 kts | 211° |
| 2026-04-24 09:48 | 43.16116 | 2.90022 | 17840 ft | 409 kts | 233° |
| 2026-04-24 09:48 | 43.14841 | 2.86656 | 17343 ft | 397 kts | 256° |
| 2026-04-24 09:48 | 43.14658 | 2.82943 | 16847 ft | 385 kts | 280° |
| 2026-04-24 09:49 | 43.15556 | 2.79619 | 16327 ft | 376 kts | 304° |
| 2026-04-24 09:49 | 43.17373 | 2.77128 | 15827 ft | 369 kts | 328° |
| 2026-04-24 09:49 | 43.19768 | 2.75949 | 15336 ft | 364 kts | 352° |
| 2026-04-24 09:49 | 43.22241 | 2.75923 | 14849 ft | 360 kts | 4° |
| 2026-04-24 09:50 | 43.24667 | 2.76313 | 14353 ft | 355 kts | 7° |
| 2026-04-24 09:50 | 43.27072 | 2.76843 | 13853 ft | 352 kts | 11° |
| 2026-04-24 09:50 | 43.29288 | 2.78142 | 13381 ft | 350 kts | 36° |
| 2026-04-24 09:50 | 43.30834 | 2.80636 | 13133 ft | 343 kts | 63° |
| 2026-04-24 09:51 | 43.31364 | 2.83777 | 12892 ft | 336 kts | 91° |
| 2026-04-24 09:51 | 43.30777 | 2.86793 | 12646 ft | 327 kts | 120° |
| 2026-04-24 09:51 | 43.29265 | 2.88984 | 12382 ft | 317 kts | 150° |
| 2026-04-24 09:51 | 43.27223 | 2.89882 | 12128 ft | 306 kts | 176° |
| 2026-04-24 09:52 | 43.25105 | 2.89839 | 11650 ft | 307 kts | 186° |
| 2026-04-24 09:52 | 43.22969 | 2.89542 | 11092 ft | 312 kts | 188° |
| 2026-04-24 09:52 | 43.20806 | 2.89195 | 10490 ft | 316 kts | 188° |
| 2026-04-24 09:52 | 43.18611 | 2.88839 | 9922 ft | 318 kts | 188° |
| 2026-04-24 09:53 | 43.16413 | 2.88483 | 9467 ft | 316 kts | 188° |
| 2026-04-24 09:53 | 43.14247 | 2.88131 | 9008 ft | 309 kts | 188° |
| 2026-04-24 09:53 | 43.12180 | 2.87785 | 8575 ft | 297 kts | 190° |
| 2026-04-24 09:53 | 43.10251 | 2.86940 | 8130 ft | 286 kts | 213° |
| 2026-04-24 09:54 | 43.08769 | 2.85245 | 7718 ft | 276 kts | 226° |
| 2026-04-24 09:54 | 43.07473 | 2.83343 | 7340 ft | 274 kts | 227° |
| 2026-04-24 09:54 | 43.06171 | 2.81430 | 6930 ft | 273 kts | 226° |
| 2026-04-24 09:54 | 43.04865 | 2.79591 | 6546 ft | 272 kts | 225° |
| 2026-04-24 09:55 | 43.03598 | 2.77680 | 6156 ft | 272 kts | 231° |
| 2026-04-24 09:55 | 43.02523 | 2.75574 | 5764 ft | 271 kts | 236° |
| 2026-04-24 09:55 | 43.01542 | 2.73392 | 5368 ft | 271 kts | 238° |
| 2026-04-24 09:55 | 43.00549 | 2.71189 | 4964 ft | 270 kts | 234° |
| 2026-04-24 09:56 | 42.99314 | 2.69300 | 4568 ft | 266 kts | 212° |
| 2026-04-24 09:56 | 42.97658 | 2.68542 | 4455 ft | 247 kts | 179° |
| 2026-04-24 09:56 | 42.96052 | 2.68967 | 4458 ft | 228 kts | 157° |
| 2026-04-24 09:56 | 42.94681 | 2.69938 | 4460 ft | 211 kts | 149° |
| 2026-04-24 09:57 | 42.93475 | 2.70948 | 4454 ft | 196 kts | 148° |
| 2026-04-24 09:57 | 42.92366 | 2.71921 | 4286 ft | 190 kts | 145° |
| 2026-04-24 09:57 | 42.91262 | 2.72941 | 3990 ft | 190 kts | 147° |
| 2026-04-24 09:57 | 42.90176 | 2.73895 | 3840 ft | 180 kts | 145° |
| 2026-04-24 09:58 | 42.89162 | 2.74846 | 3619 ft | 175 kts | 145° |
| 2026-04-24 09:58 | 42.88161 | 2.75757 | 3347 ft | 173 kts | 148° |
| 2026-04-24 09:58 | 42.87120 | 2.76576 | 3048 ft | 172 kts | 149° |
| 2026-04-24 09:58 | 42.86095 | 2.77375 | 2773 ft | 171 kts | 150° |
| 2026-04-24 09:59 | 42.85056 | 2.78182 | 2479 ft | 172 kts | 148° |
| 2026-04-24 09:59 | 42.84028 | 2.79027 | 2195 ft | 173 kts | 148° |
| 2026-04-24 09:59 | 42.83002 | 2.79830 | 1940 ft | 170 kts | 149° |
| 2026-04-24 09:59 | 42.81988 | 2.80655 | 1702 ft | 169 kts | 148° |
| 2026-04-24 10:00 | 42.81006 | 2.81476 | 1428 ft | 163 kts | 146° |
| 2026-04-24 10:00 | 42.80084 | 2.82278 | 1169 ft | 153 kts | 143° |
| 2026-04-24 10:00 | 42.79198 | 2.83076 | 900 ft | 149 kts | 147° |
| 2026-04-24 10:00 | 42.78371 | 2.83716 | 824 ft | 131 kts | 149° |
| 2026-04-24 10:01 | 42.77581 | 2.84368 | 645 ft | 134 kts | 146° |
| 2026-04-24 10:01 | 42.76802 | 2.85030 | 518 ft | 133 kts | 148° |
| 2026-04-24 10:01 | 42.75991 | 2.85684 | 327 ft | 136 kts | 146° |
| 2026-04-24 10:01 | 42.75172 | 2.86367 | 149 ft | 136 kts | 146° |
| 2026-04-24 10:02 | 42.74524 | 2.86921 | 138 ft | 74 kts | 148° |
| 2026-04-24 10:02 | 42.74242 | 2.87154 | 139 ft | 22 kts | 153° |
| 2026-04-24 10:02 | 42.74197 | 2.87188 | 139 ft | 5 kts | 149° |
| 2026-04-24 10:02 | 42.74097 | 2.87227 | 140 ft | 16 kts | 195° |
| 2026-04-24 10:03 | 42.74025 | 2.87137 | 143 ft | 12 kts | 233° |
| 2026-04-24 10:03 | 42.73970 | 2.87024 | 147 ft | 13 kts | 248° |
| 2026-04-24 10:03 | 42.73953 | 2.86890 | 150 ft | 9 kts | 272° |
| 2026-04-24 10:03 | 42.73985 | 2.86871 | 149 ft | 6 kts | 355° |
| 2026-04-24 10:04 | 42.74018 | 2.86863 | 149 ft | 0 kts | 349° |
| 2026-04-24 14:19 | 42.73895 | 2.86934 | 150 ft | 0 kts | 148° |
| 2026-04-24 14:19 | 42.74027 | 2.86864 | 149 ft | 0 kts | 39° |